Time;durP1;ratioP1;P1;durP2;ratioP2;P2;SDS_P1;SDS_P2;PMS_P1;PMS_P2;Temp;Humidity;BMP_temperature;BMP_pressure;BME280_temperature;BME280_humidity;BME280_pressure;Samples;Min_cycle;Max_cycle;Signal;HPM_P1;HPM_P2
2023/08/21 00:00:52;;;;;;;7.90;5.93;;;;;;;;;;5017049;28;20275;-54
2023/08/21 00:03:18;;;;;;;7.38;5.95;;;;;;;;;;5015826;28;20212;-54
2023/08/21 00:05:44;;;;;;;8.60;6.30;;;;;;;;;;5016881;28;20284;-54
2023/08/21 00:08:10;;;;;;;7.55;6.22;;;;;;;;;;5031784;28;20180;-54
2023/08/21 00:10:40;;;;;;;7.95;6.15;;;;;;;;;;5016335;28;20180;-54
2023/08/21 00:13:07;;;;;;;7.53;6.15;;;;;;;;;;5016125;28;20184;-54
2023/08/21 00:15:33;;;;;;;7.30;5.68;;;;;;;;;;5016806;28;20456;-54
2023/08/21 00:18:00;;;;;;;9.55;6.15;;;;;;;;;;5016251;28;20190;-54
2023/08/21 00:20:26;;;;;;;7.20;5.85;;;;;;;;;;5016558;28;20226;-54
2023/08/21 00:22:52;;;;;;;7.70;6.63;;;;;;;;;;5015652;28;20212;-54
2023/08/21 00:25:18;;;;;;;7.38;6.18;;;;;;;;;;5015601;28;20563;-54
2023/08/21 00:27:44;;;;;;;8.25;6.40;;;;;;;;;;5016176;28;20212;-54
2023/08/21 00:30:10;;;;;;;8.07;6.15;;;;;;;;;;5016080;28;20185;-54
2023/08/21 00:32:36;;;;;;;10.77;6.50;;;;;;;;;;5016368;28;20242;-54
2023/08/21 00:35:02;;;;;;;7.30;6.20;;;;;;;;;;5015483;28;20192;-54
2023/08/21 00:37:28;;;;;;;8.35;6.47;;;;;;;;;;5015232;28;20196;-54
2023/08/21 00:39:54;;;;;;;7.97;6.28;;;;;;;;;;5015705;28;20196;-54
2023/08/21 00:42:20;;;;;;;9.00;6.75;;;;;;;;;;5015670;28;20204;-54
2023/08/21 00:44:45;;;;;;;9.40;6.20;;;;;;;;;;5015702;28;20180;-54
2023/08/21 00:47:11;;;;;;;8.65;6.25;;;;;;;;;;5015921;28;20184;-54
2023/08/21 00:49:39;;;;;;;8.55;5.78;;;;;;;;;;5015783;28;20506;-54
2023/08/21 00:52:06;;;;;;;8.55;6.15;;;;;;;;;;5015788;28;20200;-54
2023/08/21 00:54:32;;;;;;;6.35;5.72;;;;;;;;;;5015500;28;20193;-54
2023/08/21 00:56:58;;;;;;;6.68;5.97;;;;;;;;;;5015315;28;20188;-54
2023/08/21 00:59:24;;;;;;;9.57;6.35;;;;;;;;;;5015020;28;20188;-54
2023/08/21 01:01:50;;;;;;;8.90;6.07;;;;;;;;;;5015931;28;20266;-54
2023/08/21 01:04:16;;;;;;;7.38;6.28;;;;;;;;;;5015596;28;20208;-54
2023/08/21 01:06:42;;;;;;;8.60;6.22;;;;;;;;;;5015042;28;20184;-54
2023/08/21 01:09:18;;;;;;;7.32;6.32;;;;;;;;;;5015631;28;20191;-54
2023/08/21 01:11:49;;;;;;;8.00;6.10;;;;;;;;;;5015768;28;20700;-54
2023/08/21 01:14:28;;;;;;;9.90;6.93;;;;;;;;;;5015519;28;20185;-54
2023/08/21 01:16:56;;;;;;;11.63;6.78;;;;;;;;;;5015517;28;20471;-54
2023/08/21 01:19:31;;;;;;;7.97;6.65;;;;;;;;;;5014832;28;20195;-54
2023/08/21 01:21:58;;;;;;;6.97;6.13;;;;;;;;;;5015570;28;20479;-54
2023/08/21 01:24:24;;;;;;;7.28;6.57;;;;;;;;;;5014128;28;20189;-54
2023/08/21 01:26:49;;;;;;;7.65;5.85;;;;;;;;;;5015356;28;20184;-54
2023/08/21 01:29:15;;;;;;;7.50;6.43;;;;;;;;;;5014908;28;20184;-54
2023/08/21 01:31:44;;;;;;;9.98;6.20;;;;;;;;;;5015141;28;20183;-54
2023/08/21 01:34:12;;;;;;;9.43;5.82;;;;;;;;;;5014254;28;20183;-54
2023/08/21 01:36:38;;;;;;;7.55;6.55;;;;;;;;;;5014207;28;20184;-54
2023/08/21 01:39:04;;;;;;;11.05;6.53;;;;;;;;;;5015216;28;20460;-54
2023/08/21 01:41:30;;;;;;;12.43;7.03;;;;;;;;;;5015197;28;20184;-54
2023/08/21 01:43:56;;;;;;;8.43;6.45;;;;;;;;;;5014777;28;20204;-54
2023/08/21 01:46:22;;;;;;;7.90;6.65;;;;;;;;;;5014419;28;20180;-54
2023/08/21 01:48:48;;;;;;;10.63;7.70;;;;;;;;;;5014348;28;20579;-54
2023/08/21 01:51:14;;;;;;;8.90;7.07;;;;;;;;;;5013436;28;20208;-54
2023/08/21 01:53:39;;;;;;;9.68;6.50;;;;;;;;;;5014393;28;20188;-54
2023/08/21 01:56:05;;;;;;;10.35;7.20;;;;;;;;;;5013760;28;20192;-54
2023/08/21 01:58:31;;;;;;;9.40;6.80;;;;;;;;;;5015097;28;20479;-54
2023/08/21 02:00:57;;;;;;;9.02;6.78;;;;;;;;;;5015243;28;20552;-54
2023/08/21 02:03:25;;;;;;;9.98;7.13;;;;;;;;;;5014407;28;20631;-54
2023/08/21 02:05:51;;;;;;;10.75;7.32;;;;;;;;;;5014476;28;20208;-54
2023/08/21 02:08:18;;;;;;;9.40;6.90;;;;;;;;;;5015003;28;20219;-54
2023/08/21 02:10:48;;;;;;;9.95;6.80;;;;;;;;;;5014822;28;20188;-54
2023/08/21 02:13:14;;;;;;;8.35;6.97;;;;;;;;;;5014555;28;20199;-54
2023/08/21 02:15:40;;;;;;;8.02;7.10;;;;;;;;;;5014204;28;20449;-54
2023/08/21 02:18:06;;;;;;;10.52;6.90;;;;;;;;;;5014709;28;20195;-54
2023/08/21 02:20:32;;;;;;;10.80;6.93;;;;;;;;;;5014921;28;20190;-54
2023/08/21 02:22:58;;;;;;;10.73;6.97;;;;;;;;;;5014286;28;20208;-54
2023/08/21 02:25:24;;;;;;;11.82;7.53;;;;;;;;;;5014397;28;20191;-54
2023/08/21 02:27:50;;;;;;;8.52;6.40;;;;;;;;;;5015177;28;20176;-54
2023/08/21 02:30:16;;;;;;;10.70;7.10;;;;;;;;;;5013963;28;20192;-54
2023/08/21 02:32:42;;;;;;;8.73;6.40;;;;;;;;;;5014825;28;20570;-54
2023/08/21 02:35:08;;;;;;;9.63;7.15;;;;;;;;;;5013832;28;20272;-54
2023/08/21 02:37:38;;;;;;;9.95;7.22;;;;;;;;;;5014931;28;20191;-54
2023/08/21 02:40:04;;;;;;;7.63;6.60;;;;;;;;;;5014454;28;20215;-54
2023/08/21 02:42:30;;;;;;;10.07;6.70;;;;;;;;;;5014539;28;20201;-54
2023/08/21 02:44:56;;;;;;;9.07;6.28;;;;;;;;;;5013667;28;20195;-54
2023/08/21 02:47:22;;;;;;;9.90;6.60;;;;;;;;;;5013594;28;20556;-54
2023/08/21 02:49:48;;;;;;;9.43;6.57;;;;;;;;;;5014665;28;20302;-54
2023/08/21 02:52:14;;;;;;;7.25;6.00;;;;;;;;;;5014695;28;20242;-54
2023/08/21 02:54:40;;;;;;;8.77;7.07;;;;;;;;;;5014229;28;20595;-54
2023/08/21 02:57:06;;;;;;;7.38;6.57;;;;;;;;;;5013750;28;20189;-54
2023/08/21 02:59:32;;;;;;;7.13;6.18;;;;;;;;;;5014189;28;20185;-54
2023/08/21 03:01:58;;;;;;;8.18;6.18;;;;;;;;;;5017286;28;20288;-54
2023/08/21 03:04:24;;;;;;;8.43;6.28;;;;;;;;;;5017986;28;20187;-54
2023/08/21 03:06:50;;;;;;;7.53;6.20;;;;;;;;;;5017304;28;20180;-54
2023/08/21 03:09:16;;;;;;;8.50;5.85;;;;;;;;;;5018066;28;20670;-54
2023/08/21 03:11:42;;;;;;;8.80;6.68;;;;;;;;;;5017788;28;20444;-54
2023/08/21 03:14:07;;;;;;;8.18;6.18;;;;;;;;;;5017308;28;20192;-54
2023/08/21 03:16:33;;;;;;;9.20;6.20;;;;;;;;;;5017035;28;20188;-54
2023/08/21 03:19:00;;;;;;;8.10;5.60;;;;;;;;;;5017784;28;20231;-54
2023/08/21 03:21:27;;;;;;;6.38;5.70;;;;;;;;;;5017735;28;20195;-54
2023/08/21 03:23:58;;;;;;;8.10;5.80;;;;;;;;;;5032817;28;20262;-54
2023/08/21 03:26:24;;;;;;;7.38;5.75;;;;;;;;;;5017255;28;20184;-54
2023/08/21 03:28:50;;;;;;;7.65;6.00;;;;;;;;;;5016304;28;20227;-54
2023/08/21 03:31:16;;;;;;;6.68;4.95;;;;;;;;;;5016444;28;20264;-54
2023/08/21 03:33:42;;;;;;;7.20;5.80;;;;;;;;;;5017062;28;20552;-54
2023/08/21 03:36:08;;;;;;;6.65;5.57;;;;;;;;;;5017529;28;20271;-54
2023/08/21 03:38:34;;;;;;;7.97;5.72;;;;;;;;;;5017066;28;20564;-55
2023/08/21 03:41:00;;;;;;;6.68;5.97;;;;;;;;;;5016943;28;20192;-54
2023/08/21 03:43:26;;;;;;;7.28;5.93;;;;;;;;;;5016385;28;20223;-54
2023/08/21 03:45:52;;;;;;;7.18;5.45;;;;;;;;;;5017247;28;20188;-54
2023/08/21 03:48:18;;;;;;;9.18;7.22;;;;;;;;;;5015444;28;20181;-52
2023/08/21 03:50:44;;;;;;;10.38;7.60;;;;;;;;;;5017046;28;20177;-51
2023/08/21 03:53:10;;;;;;;17.33;6.93;;;;;;;;;;5016332;28;20560;-51
2023/08/21 03:55:36;;;;;;;8.50;5.95;;;;;;;;;;5017007;28;20220;-51
2023/08/21 03:58:02;;;;;;;12.93;7.20;;;;;;;;;;5016366;28;20262;-51
2023/08/21 04:00:28;;;;;;;7.88;6.70;;;;;;;;;;5016459;28;20429;-51
2023/08/21 04:02:54;;;;;;;7.78;6.18;;;;;;;;;;5016869;28;20219;-52
2023/08/21 04:05:20;;;;;;;10.10;6.28;;;;;;;;;;5015998;28;20564;-51
2023/08/21 04:07:46;;;;;;;13.30;6.72;;;;;;;;;;5015887;28;20243;-48
2023/08/21 04:10:12;;;;;;;17.20;6.18;;;;;;;;;;5016375;28;20284;-46
2023/08/21 04:12:38;;;;;;;6.60;5.88;;;;;;;;;;5015680;28;20419;-49
2023/08/21 04:15:06;;;;;;;6.85;6.18;;;;;;;;;;5016372;28;20199;-49
2023/08/21 04:17:31;;;;;;;7.93;6.15;;;;;;;;;;5032472;28;20176;-49
2023/08/21 04:19:57;;;;;;;6.65;5.90;;;;;;;;;;5032187;28;20240;-50
2023/08/21 04:22:23;;;;;;;9.07;6.10;;;;;;;;;;5015794;28;20204;-49
2023/08/21 04:24:49;;;;;;;8.15;6.47;;;;;;;;;;5016415;28;20564;-49
2023/08/21 04:27:15;;;;;;;8.95;6.75;;;;;;;;;;5016234;28;20184;-50
2023/08/21 04:29:41;;;;;;;8.45;6.03;;;;;;;;;;5015912;28;20234;-49
2023/08/21 04:32:07;;;;;;;8.90;6.88;;;;;;;;;;5016184;28;20234;-49
2023/08/21 04:34:33;;;;;;;8.93;6.28;;;;;;;;;;5016153;28;20262;-49
2023/08/21 04:37:00;;;;;;;13.27;6.93;;;;;;;;;;5015724;28;20173;-49
2023/08/21 04:39:25;;;;;;;7.50;6.50;;;;;;;;;;5015641;28;20176;-49
2023/08/21 04:41:52;;;;;;;10.23;7.35;;;;;;;;;;5016562;28;20203;-49
2023/08/21 04:44:18;;;;;;;9.23;6.65;;;;;;;;;;5015861;28;20212;-49
2023/08/21 04:46:44;;;;;;;10.18;6.75;;;;;;;;;;5016146;28;20179;-49
2023/08/21 04:49:10;;;;;;;8.65;6.47;;;;;;;;;;5016270;28;20180;-49
2023/08/21 04:51:36;;;;;;;6.45;5.75;;;;;;;;;;5015041;28;20201;-49
2023/08/21 04:54:02;;;;;;;7.05;6.18;;;;;;;;;;5015102;28;20189;-49
2023/08/21 04:56:28;;;;;;;6.53;5.45;;;;;;;;;;5014425;28;20195;-49
2023/08/21 04:58:54;;;;;;;10.05;6.55;;;;;;;;;;5016227;28;20215;-50
2023/08/21 05:01:20;;;;;;;7.35;6.10;;;;;;;;;;5015649;28;20595;-49
2023/08/21 05:03:45;;;;;;;9.15;5.95;;;;;;;;;;5015508;28;20208;-49
2023/08/21 05:06:11;;;;;;;6.78;6.00;;;;;;;;;;5015151;28;20441;-50
2023/08/21 05:08:37;;;;;;;7.05;5.88;;;;;;;;;;5010265;28;20623;-50
2023/08/21 05:11:03;;;;;;;6.65;5.65;;;;;;;;;;5013877;28;20176;-50
2023/08/21 05:13:29;;;;;;;9.38;5.95;;;;;;;;;;5014083;28;20291;-50
2023/08/21 05:15:55;;;;;;;9.73;6.03;;;;;;;;;;5012947;28;20206;-50
2023/08/21 05:18:22;;;;;;;11.07;6.43;;;;;;;;;;5030112;28;20195;-48
2023/08/21 05:20:48;;;;;;;6.80;6.03;;;;;;;;;;5013994;28;20259;-46
2023/08/21 05:23:14;;;;;;;10.25;6.80;;;;;;;;;;5013472;28;20287;-50
2023/08/21 05:25:40;;;;;;;9.65;5.63;;;;;;;;;;5013523;28;20409;-50
2023/08/21 05:28:07;;;;;;;7.40;5.50;;;;;;;;;;5014384;28;20587;-50
2023/08/21 05:30:33;;;;;;;8.18;6.07;;;;;;;;;;5014836;28;20745;-50
2023/08/21 05:32:59;;;;;;;10.73;6.35;;;;;;;;;;5014800;28;20179;-50
2023/08/21 05:35:25;;;;;;;11.80;6.22;;;;;;;;;;5014432;28;20184;-49
2023/08/21 05:37:51;;;;;;;6.90;5.97;;;;;;;;;;5014754;28;20250;-49
2023/08/21 05:40:16;;;;;;;11.18;6.95;;;;;;;;;;5014445;28;20191;-50
2023/08/21 05:42:42;;;;;;;10.10;7.18;;;;;;;;;;5012135;28;20204;-50
2023/08/21 05:45:08;;;;;;;8.18;6.20;;;;;;;;;;5012453;28;20180;-50
2023/08/21 05:47:34;;;;;;;18.35;6.70;;;;;;;;;;5016515;28;20267;-50
2023/08/21 05:50:00;;;;;;;11.80;7.22;;;;;;;;;;5014526;28;20266;-47
2023/08/21 05:52:26;;;;;;;15.02;7.78;;;;;;;;;;5014269;28;20208;-46
2023/08/21 05:54:52;;;;;;;21.52;8.02;;;;;;;;;;5014217;28;20184;-49
2023/08/21 05:57:18;;;;;;;10.20;7.15;;;;;;;;;;5014411;28;20188;-51
2023/08/21 05:59:47;;;;;;;10.82;7.40;;;;;;;;;;5014511;28;20582;-48
2023/08/21 06:02:14;;;;;;;8.07;6.30;;;;;;;;;;5013970;28;20429;-49
2023/08/21 06:04:41;;;;;;;12.68;7.63;;;;;;;;;;5013769;28;20184;-45
2023/08/21 06:07:07;;;;;;;10.75;6.97;;;;;;;;;;5014420;28;20184;-45
2023/08/21 06:09:33;;;;;;;11.32;6.93;;;;;;;;;;5014453;28;20176;-47
2023/08/21 06:12:01;;;;;;;11.13;6.20;;;;;;;;;;5014144;28;20180;-47
2023/08/21 06:14:30;;;;;;;15.93;6.65;;;;;;;;;;5014101;28;20570;-47
2023/08/21 06:17:02;;;;;;;10.93;6.57;;;;;;;;;;5014190;28;20192;-47
2023/08/21 06:19:29;;;;;;;12.02;6.30;;;;;;;;;;5013998;28;20195;-47
2023/08/21 06:21:55;;;;;;;11.10;6.25;;;;;;;;;;5014197;28;20192;-47
2023/08/21 06:24:21;;;;;;;7.03;5.97;;;;;;;;;;5013677;28;20236;-47
2023/08/21 06:26:47;;;;;;;10.88;6.00;;;;;;;;;;5014216;28;20286;-47
2023/08/21 06:29:13;;;;;;;6.75;5.93;;;;;;;;;;5014424;28;20495;-47
2023/08/21 06:31:39;;;;;;;11.60;6.20;;;;;;;;;;5013687;28;20252;-47
2023/08/21 06:34:05;;;;;;;9.82;6.72;;;;;;;;;;5013945;28;20204;-47
2023/08/21 06:36:31;;;;;;;8.25;6.32;;;;;;;;;;5016401;28;20469;-47
2023/08/21 06:38:57;;;;;;;10.52;7.05;;;;;;;;;;5017858;28;20193;-47
2023/08/21 06:41:25;;;;;;;11.80;6.32;;;;;;;;;;5017786;28;20427;-47
2023/08/21 06:43:51;;;;;;;7.53;6.15;;;;;;;;;;5017653;28;20609;-47
2023/08/21 06:46:17;;;;;;;10.70;6.75;;;;;;;;;;5017144;28;20192;-47
2023/08/21 06:48:43;;;;;;;7.30;6.57;;;;;;;;;;5017577;28;20891;-47
2023/08/21 06:51:10;;;;;;;13.35;7.03;;;;;;;;;;5017562;28;20184;-47
2023/08/21 06:53:36;;;;;;;11.32;8.18;;;;;;;;;;5016880;28;20242;-47
2023/08/21 06:56:02;;;;;;;11.25;8.88;;;;;;;;;;5017465;28;20272;-47
2023/08/21 06:58:28;;;;;;;9.50;7.63;;;;;;;;;;5017586;28;20275;-47
2023/08/21 07:00:55;;;;;;;8.52;6.28;;;;;;;;;;5016905;28;20185;-47
2023/08/21 07:03:21;;;;;;;9.90;7.50;;;;;;;;;;5016986;28;20318;-47
2023/08/21 07:05:54;;;;;;;8.55;7.65;;;;;;;;;;5017522;28;20173;-48
2023/08/21 07:08:20;;;;;;;9.70;6.80;;;;;;;;;;5017576;28;20423;-48
2023/08/21 07:10:46;;;;;;;9.63;7.18;;;;;;;;;;5017243;28;20230;-47
2023/08/21 07:13:12;;;;;;;7.78;6.80;;;;;;;;;;5016997;28;20238;-47
2023/08/21 07:15:38;;;;;;;7.65;6.72;;;;;;;;;;5017149;28;20172;-47
2023/08/21 07:18:04;;;;;;;7.32;6.57;;;;;;;;;;5017194;28;20185;-47
2023/08/21 07:20:30;;;;;;;7.65;6.68;;;;;;;;;;5017046;28;20193;-47
2023/08/21 07:22:56;;;;;;;8.05;7.18;;;;;;;;;;5017001;28;20925;-47
2023/08/21 07:25:22;;;;;;;8.93;6.68;;;;;;;;;;5016477;28;20173;-47
2023/08/21 07:27:48;;;;;;;14.45;7.70;;;;;;;;;;5017281;28;20177;-47
2023/08/21 07:30:17;;;;;;;9.18;7.38;;;;;;;;;;5016852;28;20211;-47
2023/08/21 07:32:43;;;;;;;10.45;7.57;;;;;;;;;;5017081;28;20200;-47
2023/08/21 07:35:10;;;;;;;10.23;7.55;;;;;;;;;;5016057;28;20544;-47
2023/08/21 07:37:36;;;;;;;9.50;7.25;;;;;;;;;;5016690;28;20566;-47
2023/08/21 07:40:02;;;;;;;11.02;8.05;;;;;;;;;;5016961;28;20195;-47
2023/08/21 07:42:28;;;;;;;9.82;7.40;;;;;;;;;;5016148;28;20184;-47
2023/08/21 07:44:54;;;;;;;8.27;6.88;;;;;;;;;;5016318;28;20191;-47
2023/08/21 07:47:20;;;;;;;11.80;8.23;;;;;;;;;;5016145;28;20197;-47
2023/08/21 07:49:46;;;;;;;11.68;8.40;;;;;;;;;;5016941;28;20263;-47
2023/08/21 07:52:12;;;;;;;9.18;7.45;;;;;;;;;;5016137;28;20462;-47
2023/08/21 07:54:38;;;;;;;9.07;7.82;;;;;;;;;;5016009;28;20615;-47
2023/08/21 07:57:04;;;;;;;11.68;7.10;;;;;;;;;;5014851;28;20263;-47
2023/08/21 07:59:30;;;;;;;10.20;8.13;;;;;;;;;;5015793;28;20188;-47
2023/08/21 08:01:56;;;;;;;9.65;7.97;;;;;;;;;;5016492;28;20540;-47
2023/08/21 08:04:22;;;;;;;10.20;7.93;;;;;;;;;;5015372;28;20520;-47
2023/08/21 08:06:48;;;;;;;9.82;8.40;;;;;;;;;;5030854;28;20184;-47
2023/08/21 08:09:14;;;;;;;14.32;9.02;;;;;;;;;;5015775;28;20192;-47
2023/08/21 08:11:40;;;;;;;8.32;7.50;;;;;;;;;;5015676;28;20184;-47
2023/08/21 08:14:06;;;;;;;7.55;6.80;;;;;;;;;;5015410;28;20230;-47
2023/08/21 08:16:32;;;;;;;9.35;7.80;;;;;;;;;;5015541;28;20189;-47
2023/08/21 08:18:58;;;;;;;8.90;7.65;;;;;;;;;;5012420;28;20188;-47
2023/08/21 08:21:24;;;;;;;14.05;8.13;;;;;;;;;;5014606;28;20183;-47
2023/08/21 08:23:50;;;;;;;15.13;7.72;;;;;;;;;;5013042;28;20204;-47
2023/08/21 08:26:16;;;;;;;8.52;7.15;;;;;;;;;;5014985;28;20200;-47
2023/08/21 08:28:42;;;;;;;9.27;8.23;;;;;;;;;;5015250;28;20184;-47
2023/08/21 08:31:15;;;;;;;9.00;8.10;;;;;;;;;;5015614;28;20188;-47
2023/08/21 08:33:40;;;;;;;9.65;7.53;;;;;;;;;;5015289;28;20587;-47
2023/08/21 08:36:06;;;;;;;8.70;7.80;;;;;;;;;;5015645;28;20192;-47
2023/08/21 08:38:32;;;;;;;9.40;8.50;;;;;;;;;;5015820;28;20211;-47
2023/08/21 08:40:58;;;;;;;9.55;8.43;;;;;;;;;;5014979;28;20198;-47
2023/08/21 08:43:25;;;;;;;9.32;8.43;;;;;;;;;;5030623;28;20618;-47
2023/08/21 08:45:53;;;;;;;10.07;7.85;;;;;;;;;;5007352;28;20177;-47
2023/08/21 08:48:20;;;;;;;12.73;8.18;;;;;;;;;;5015508;28;20188;-47
2023/08/21 08:50:48;;;;;;;8.32;7.43;;;;;;;;;;5015249;28;20184;-47
2023/08/21 08:53:14;;;;;;;8.35;7.55;;;;;;;;;;5010242;28;20212;-47
2023/08/21 08:55:40;;;;;;;10.35;8.20;;;;;;;;;;5014503;28;20200;-47
2023/08/21 08:58:06;;;;;;;9.43;8.40;;;;;;;;;;5014096;28;20208;-47
2023/08/21 09:00:32;;;;;;;9.80;8.30;;;;;;;;;;5013923;28;20586;-47
2023/08/21 09:02:58;;;;;;;9.00;8.10;;;;;;;;;;5014693;28;20291;-47
2023/08/21 09:05:24;;;;;;;9.80;8.13;;;;;;;;;;5015678;28;20192;-47
2023/08/21 09:08:03;;;;;;;8.95;8.05;;;;;;;;;;5014911;28;20203;-47
2023/08/21 09:10:29;;;;;;;9.88;7.85;;;;;;;;;;5015055;28;20184;-47
2023/08/21 09:12:57;;;;;;;13.10;8.50;;;;;;;;;;5031223;28;20230;-47
2023/08/21 09:15:27;;;;;;;8.07;7.28;;;;;;;;;;5014698;28;20180;-47
2023/08/21 09:17:54;;;;;;;9.15;7.43;;;;;;;;;;5034400;28;20211;-47
2023/08/21 09:20:20;;;;;;;10.15;7.25;;;;;;;;;;5019765;28;20189;-47
2023/08/21 09:22:54;;;;;;;8.85;7.38;;;;;;;;;;5014574;28;20218;-47
2023/08/21 09:25:20;;;;;;;8.57;7.68;;;;;;;;;;5014806;28;20276;-47
2023/08/21 09:27:46;;;;;;;7.47;6.18;;;;;;;;;;5030651;28;20271;-47
2023/08/21 09:30:16;;;;;;;7.72;6.68;;;;;;;;;;5015177;28;20196;-47
2023/08/21 09:32:55;;;;;;;7.65;6.60;;;;;;;;;;5014660;28;20204;-47
2023/08/21 09:35:21;;;;;;;7.25;6.55;;;;;;;;;;5014030;28;20185;-47
2023/08/21 09:37:47;;;;;;;9.57;6.97;;;;;;;;;;5013394;28;20184;-47
2023/08/21 09:40:15;;;;;;;12.13;6.85;;;;;;;;;;5014016;28;20184;-50
2023/08/21 09:42:41;;;;;;;8.15;6.55;;;;;;;;;;5013916;28;20323;-46
2023/08/21 09:45:07;;;;;;;8.45;6.78;;;;;;;;;;5014356;28;20270;-48
2023/08/21 09:47:33;;;;;;;8.13;6.45;;;;;;;;;;5014389;28;20635;-50
2023/08/21 09:49:59;;;;;;;10.82;6.18;;;;;;;;;;5013951;28;20176;-50
2023/08/21 09:52:26;;;;;;;7.97;6.50;;;;;;;;;;5014472;28;20227;-49
2023/08/21 09:54:53;;;;;;;8.73;6.70;;;;;;;;;;5013758;28;20188;-49
2023/08/21 09:57:22;;;;;;;8.85;5.80;;;;;;;;;;5013676;28;20338;-49
2023/08/21 09:59:49;;;;;;;10.88;6.38;;;;;;;;;;5013889;28;20211;-49
2023/08/21 10:02:15;;;;;;;11.10;6.57;;;;;;;;;;5014696;28;20176;-58
2023/08/21 10:04:45;;;;;;;7.25;6.20;;;;;;;;;;5014410;28;20204;-50
2023/08/21 10:07:12;;;;;;;8.65;6.40;;;;;;;;;;5013964;28;20591;-50
2023/08/21 10:09:39;;;;;;;10.80;6.70;;;;;;;;;;5014423;28;20180;-50
2023/08/21 10:12:05;;;;;;;8.13;6.53;;;;;;;;;;5018622;28;20560;-50
2023/08/21 10:14:31;;;;;;;9.77;6.13;;;;;;;;;;5018604;28;20184;-50
2023/08/21 10:16:57;;;;;;;7.45;6.50;;;;;;;;;;5018942;28;20184;-50
2023/08/21 10:19:23;;;;;;;10.52;6.45;;;;;;;;;;5017998;28;20211;-51
2023/08/21 10:21:50;;;;;;;7.53;6.22;;;;;;;;;;5018665;28;20216;-50
2023/08/21 10:24:28;;;;;;;11.50;6.35;;;;;;;;;;5018056;28;20247;-51
2023/08/21 10:26:54;;;;;;;8.20;6.13;;;;;;;;;;5034083;28;20439;-51
2023/08/21 10:29:20;;;;;;;8.32;5.70;;;;;;;;;;5018225;28;20247;-50
2023/08/21 10:31:46;;;;;;;9.05;5.82;;;;;;;;;;5018661;28;20268;-47
2023/08/21 10:34:13;;;;;;;11.20;6.10;;;;;;;;;;5018177;28;20185;-48
2023/08/21 10:36:44;;;;;;;6.22;5.20;;;;;;;;;;5018691;28;20259;-49
2023/08/21 10:39:17;;;;;;;12.10;6.25;;;;;;;;;;5017874;28;20180;-48
2023/08/21 10:42:06;;;;;;;6.13;5.53;;;;;;;;;;5018180;28;20192;-47
2023/08/21 10:44:59;;;;;;;9.40;5.90;;;;;;;;;;5018070;28;20751;-49
2023/08/21 10:47:28;;;;;;;7.20;5.70;;;;;;;;;;5013363;28;20192;-49
2023/08/21 10:49:55;;;;;;;9.38;5.72;;;;;;;;;;5017301;28;20191;-47
2023/08/21 10:52:24;;;;;;;6.10;5.50;;;;;;;;;;5018339;28;20188;-49
2023/08/21 10:54:51;;;;;;;13.85;5.72;;;;;;;;;;5017791;28;20820;-49
2023/08/21 10:57:17;;;;;;;10.80;6.18;;;;;;;;;;5016025;28;20771;-49
2023/08/21 10:59:50;;;;;;;9.85;5.70;;;;;;;;;;5016635;28;20278;-50
2023/08/21 11:02:16;;;;;;;8.20;5.47;;;;;;;;;;5016426;28;20222;-49
2023/08/21 11:04:44;;;;;;;8.85;5.72;;;;;;;;;;5017426;28;20216;-48
2023/08/21 11:07:10;;;;;;;8.45;5.43;;;;;;;;;;5018119;28;20184;-48
2023/08/21 11:09:36;;;;;;;7.82;5.88;;;;;;;;;;5016219;28;20446;-47
2023/08/21 11:12:06;;;;;;;15.90;6.80;;;;;;;;;;5017641;28;20176;-50
2023/08/21 11:14:32;;;;;;;9.02;6.28;;;;;;;;;;5017564;28;20206;-49
2023/08/21 11:16:59;;;;;;;9.18;6.35;;;;;;;;;;5017733;28;20189;-47
2023/08/21 11:19:25;;;;;;;10.98;6.63;;;;;;;;;;5017191;28;20176;-48
2023/08/21 11:21:52;;;;;;;9.10;6.25;;;;;;;;;;5016905;28;20203;-45
2023/08/21 11:24:18;;;;;;;10.45;6.75;;;;;;;;;;5015945;28;20204;-47
2023/08/21 11:26:44;;;;;;;10.65;5.57;;;;;;;;;;5016768;28;20419;-48
2023/08/21 11:29:09;;;;;;;7.93;5.55;;;;;;;;;;5016805;28;20191;-49
2023/08/21 11:31:36;;;;;;;7.60;4.82;;;;;;;;;;5016359;28;20185;-49
2023/08/21 11:34:02;;;;;;;9.57;5.75;;;;;;;;;;5016907;28;20188;-48
2023/08/21 11:36:28;;;;;;;10.68;5.28;;;;;;;;;;5017597;28;20562;-44
2023/08/21 11:39:00;;;;;;;10.25;5.30;;;;;;;;;;5017676;28;20712;-45
2023/08/21 11:41:27;;;;;;;6.63;4.97;;;;;;;;;;5016789;28;20620;-50
2023/08/21 11:43:52;;;;;;;8.15;5.05;;;;;;;;;;5016208;28;20208;-46
